sensor_id;sensor_type;location;lat;lon;timestamp;P1;durP1;ratioP1;P2;durP2;ratioP2
18592;SDS011;9426;54.118;17.948;2023-02-18T00:04:24;27.30;;;3.70;;
18592;SDS011;9426;54.118;17.948;2023-02-18T00:09:49;24.07;;;3.67;;
18592;SDS011;9426;54.118;17.948;2023-02-18T00:15:13;28.00;;;3.70;;
18592;SDS011;9426;54.118;17.948;2023-02-18T00:20:37;21.43;;;3.70;;
18592;SDS011;9426;54.118;17.948;2023-02-18T00:26:04;23.80;;;3.70;;
18592;SDS011;9426;54.118;17.948;2023-02-18T00:31:30;22.93;;;4.73;;
18592;SDS011;9426;54.118;17.948;2023-02-18T00:36:55;30.40;;;4.50;;
18592;SDS011;9426;54.118;17.948;2023-02-18T00:42:21;26.57;;;4.03;;
18592;SDS011;9426;54.118;17.948;2023-02-18T00:47:46;25.00;;;4.27;;
18592;SDS011;9426;54.118;17.948;2023-02-18T00:53:10;24.63;;;4.70;;
18592;SDS011;9426;54.118;17.948;2023-02-18T00:58:35;22.73;;;3.60;;
18592;SDS011;9426;54.118;17.948;2023-02-18T01:03:59;26.53;;;4.20;;
18592;SDS011;9426;54.118;17.948;2023-02-18T01:09:24;29.87;;;4.70;;
18592;SDS011;9426;54.118;17.948;2023-02-18T01:14:49;34.23;;;5.37;;
18592;SDS011;9426;54.118;17.948;2023-02-18T01:20:13;23.87;;;4.50;;
18592;SDS011;9426;54.118;17.948;2023-02-18T01:25:37;21.77;;;4.53;;
18592;SDS011;9426;54.118;17.948;2023-02-18T01:31:04;28.80;;;5.10;;
18592;SDS011;9426;54.118;17.948;2023-02-18T01:36:29;31.53;;;4.10;;
18592;SDS011;9426;54.118;17.948;2023-02-18T01:41:53;21.37;;;3.57;;
18592;SDS011;9426;54.118;17.948;2023-02-18T01:47:18;27.47;;;4.60;;
18592;SDS011;9426;54.118;17.948;2023-02-18T01:52:45;26.90;;;4.07;;
18592;SDS011;9426;54.118;17.948;2023-02-18T01:58:09;27.90;;;4.43;;
18592;SDS011;9426;54.118;17.948;2023-02-18T02:03:36;34.97;;;3.87;;
18592;SDS011;9426;54.118;17.948;2023-02-18T02:09:01;29.77;;;4.70;;
18592;SDS011;9426;54.118;17.948;2023-02-18T02:32:46;31.73;;;4.37;;
18592;SDS011;9426;54.118;17.948;2023-02-18T02:38:33;30.33;;;4.10;;
18592;SDS011;9426;54.118;17.948;2023-02-18T02:44:06;28.83;;;3.87;;
18592;SDS011;9426;54.118;17.948;2023-02-18T02:49:38;22.07;;;4.17;;
18592;SDS011;9426;54.118;17.948;2023-02-18T02:55:10;36.03;;;4.57;;
18592;SDS011;9426;54.118;17.948;2023-02-18T03:00:37;23.67;;;4.43;;
18592;SDS011;9426;54.118;17.948;2023-02-18T03:06:13;21.13;;;3.73;;
18592;SDS011;9426;54.118;17.948;2023-02-18T03:11:56;27.53;;;4.43;;
18592;SDS011;9426;54.118;17.948;2023-02-18T03:17:28;22.67;;;4.03;;
18592;SDS011;9426;54.118;17.948;2023-02-18T03:22:54;28.13;;;3.63;;
18592;SDS011;9426;54.118;17.948;2023-02-18T03:28:22;21.63;;;3.50;;
18592;SDS011;9426;54.118;17.948;2023-02-18T03:33:50;27.83;;;4.13;;
18592;SDS011;9426;54.118;17.948;2023-02-18T03:39:17;24.27;;;4.10;;
18592;SDS011;9426;54.118;17.948;2023-02-18T03:44:44;19.67;;;3.57;;
18592;SDS011;9426;54.118;17.948;2023-02-18T03:50:08;22.50;;;3.87;;
18592;SDS011;9426;54.118;17.948;2023-02-18T03:55:32;17.07;;;3.70;;
18592;SDS011;9426;54.118;17.948;2023-02-18T04:00:57;21.67;;;3.80;;
18592;SDS011;9426;54.118;17.948;2023-02-18T04:06:21;17.93;;;3.40;;
18592;SDS011;9426;54.118;17.948;2023-02-18T04:11:45;39.13;;;4.83;;
18592;SDS011;9426;54.118;17.948;2023-02-18T04:17:10;26.37;;;3.73;;
18592;SDS011;9426;54.118;17.948;2023-02-18T04:22:34;25.73;;;4.00;;
18592;SDS011;9426;54.118;17.948;2023-02-18T04:27:57;18.37;;;3.60;;
18592;SDS011;9426;54.118;17.948;2023-02-18T04:33:22;17.77;;;2.97;;
18592;SDS011;9426;54.118;17.948;2023-02-18T04:38:46;17.70;;;3.00;;
18592;SDS011;9426;54.118;17.948;2023-02-18T04:44:10;19.40;;;3.63;;
18592;SDS011;9426;54.118;17.948;2023-02-18T04:49:35;24.97;;;3.77;;
18592;SDS011;9426;54.118;17.948;2023-02-18T04:54:59;23.37;;;3.60;;
18592;SDS011;9426;54.118;17.948;2023-02-18T05:00:23;28.30;;;3.53;;
18592;SDS011;9426;54.118;17.948;2023-02-18T05:05:50;22.47;;;4.33;;
18592;SDS011;9426;54.118;17.948;2023-02-18T05:11:14;25.87;;;3.67;;
18592;SDS011;9426;54.118;17.948;2023-02-18T05:16:37;24.13;;;4.20;;
18592;SDS011;9426;54.118;17.948;2023-02-18T05:22:02;18.67;;;3.93;;
18592;SDS011;9426;54.118;17.948;2023-02-18T05:27:26;23.87;;;3.30;;
18592;SDS011;9426;54.118;17.948;2023-02-18T05:32:50;22.50;;;3.93;;
18592;SDS011;9426;54.118;17.948;2023-02-18T05:38:15;24.20;;;3.37;;
18592;SDS011;9426;54.118;17.948;2023-02-18T05:43:39;22.77;;;4.17;;
18592;SDS011;9426;54.118;17.948;2023-02-18T05:49:16;27.37;;;4.30;;
18592;SDS011;9426;54.118;17.948;2023-02-18T05:54:41;27.70;;;3.23;;
18592;SDS011;9426;54.118;17.948;2023-02-18T06:00:06;22.47;;;3.93;;
18592;SDS011;9426;54.118;17.948;2023-02-18T06:05:31;25.17;;;4.00;;
18592;SDS011;9426;54.118;17.948;2023-02-18T06:10:56;33.33;;;4.37;;
18592;SDS011;9426;54.118;17.948;2023-02-18T06:16:19;32.37;;;3.83;;
18592;SDS011;9426;54.118;17.948;2023-02-18T06:21:43;25.40;;;4.23;;
18592;SDS011;9426;54.118;17.948;2023-02-18T06:27:08;26.97;;;4.33;;
18592;SDS011;9426;54.118;17.948;2023-02-18T06:32:32;20.93;;;3.60;;
18592;SDS011;9426;54.118;17.948;2023-02-18T06:37:56;22.07;;;3.43;;
18592;SDS011;9426;54.118;17.948;2023-02-18T06:43:21;22.13;;;5.20;;
18592;SDS011;9426;54.118;17.948;2023-02-18T06:48:45;28.13;;;5.20;;
18592;SDS011;9426;54.118;17.948;2023-02-18T06:54:09;25.20;;;4.07;;
18592;SDS011;9426;54.118;17.948;2023-02-18T06:59:34;26.83;;;3.50;;
18592;SDS011;9426;54.118;17.948;2023-02-18T07:04:57;23.80;;;3.90;;
18592;SDS011;9426;54.118;17.948;2023-02-18T07:10:21;20.90;;;3.90;;
18592;SDS011;9426;54.118;17.948;2023-02-18T07:15:46;31.07;;;4.70;;
18592;SDS011;9426;54.118;17.948;2023-02-18T07:21:10;21.57;;;4.07;;
18592;SDS011;9426;54.118;17.948;2023-02-18T07:26:33;21.10;;;2.90;;
18592;SDS011;9426;54.118;17.948;2023-02-18T07:31:59;24.60;;;4.27;;
18592;SDS011;9426;54.118;17.948;2023-02-18T07:37:22;23.87;;;3.90;;
18592;SDS011;9426;54.118;17.948;2023-02-18T07:42:46;27.77;;;5.83;;
18592;SDS011;9426;54.118;17.948;2023-02-18T07:48:14;22.13;;;4.00;;
18592;SDS011;9426;54.118;17.948;2023-02-18T07:53:38;20.17;;;3.53;;
18592;SDS011;9426;54.118;17.948;2023-02-18T07:59:02;21.40;;;4.03;;
18592;SDS011;9426;54.118;17.948;2023-02-18T08:04:27;24.63;;;3.83;;
18592;SDS011;9426;54.118;17.948;2023-02-18T08:09:51;19.03;;;3.30;;
18592;SDS011;9426;54.118;17.948;2023-02-18T08:15:14;23.57;;;4.20;;
18592;SDS011;9426;54.118;17.948;2023-02-18T08:20:40;24.17;;;4.10;;
18592;SDS011;9426;54.118;17.948;2023-02-18T08:26:04;22.97;;;4.20;;
18592;SDS011;9426;54.118;17.948;2023-02-18T08:31:34;24.13;;;3.83;;
18592;SDS011;9426;54.118;17.948;2023-02-18T08:37:01;21.77;;;3.37;;
18592;SDS011;9426;54.118;17.948;2023-02-18T08:42:25;21.43;;;3.37;;
18592;SDS011;9426;54.118;17.948;2023-02-18T08:47:49;27.57;;;4.43;;
18592;SDS011;9426;54.118;17.948;2023-02-18T08:53:13;35.97;;;4.33;;
18592;SDS011;9426;54.118;17.948;2023-02-18T08:58:37;28.73;;;4.47;;
18592;SDS011;9426;54.118;17.948;2023-02-18T09:04:01;26.37;;;3.43;;
18592;SDS011;9426;54.118;17.948;2023-02-18T09:09:27;23.37;;;3.73;;
18592;SDS011;9426;54.118;17.948;2023-02-18T09:14:51;27.07;;;4.33;;
18592;SDS011;9426;54.118;17.948;2023-02-18T09:20:15;22.70;;;3.63;;
18592;SDS011;9426;54.118;17.948;2023-02-18T09:25:40;18.13;;;3.53;;
18592;SDS011;9426;54.118;17.948;2023-02-18T09:31:04;25.13;;;3.87;;
18592;SDS011;9426;54.118;17.948;2023-02-18T09:36:29;28.13;;;4.63;;
18592;SDS011;9426;54.118;17.948;2023-02-18T09:41:55;29.77;;;4.47;;
18592;SDS011;9426;54.118;17.948;2023-02-18T09:47:23;24.47;;;4.27;;
18592;SDS011;9426;54.118;17.948;2023-02-18T09:52:52;24.73;;;3.50;;
18592;SDS011;9426;54.118;17.948;2023-02-18T09:58:18;25.20;;;4.90;;
18592;SDS011;9426;54.118;17.948;2023-02-18T10:03:45;30.27;;;4.30;;
18592;SDS011;9426;54.118;17.948;2023-02-18T10:09:11;29.67;;;4.67;;
18592;SDS011;9426;54.118;17.948;2023-02-18T10:14:41;28.80;;;5.13;;
18592;SDS011;9426;54.118;17.948;2023-02-18T10:20:06;22.53;;;4.37;;
18592;SDS011;9426;54.118;17.948;2023-02-18T10:25:34;17.70;;;3.17;;
18592;SDS011;9426;54.118;17.948;2023-02-18T10:31:06;21.43;;;4.27;;
18592;SDS011;9426;54.118;17.948;2023-02-18T10:36:34;23.60;;;3.63;;
18592;SDS011;9426;54.118;17.948;2023-02-18T10:42:05;16.50;;;3.20;;
18592;SDS011;9426;54.118;17.948;2023-02-18T10:47:42;21.70;;;3.93;;
18592;SDS011;9426;54.118;17.948;2023-02-18T10:53:17;23.93;;;3.10;;
18592;SDS011;9426;54.118;17.948;2023-02-18T10:58:47;22.40;;;3.50;;
18592;SDS011;9426;54.118;17.948;2023-02-18T11:04:15;26.63;;;3.97;;
18592;SDS011;9426;54.118;17.948;2023-02-18T11:09:45;23.97;;;3.50;;
18592;SDS011;9426;54.118;17.948;2023-02-18T11:15:15;18.17;;;3.13;;
18592;SDS011;9426;54.118;17.948;2023-02-18T11:20:42;15.77;;;2.40;;
18592;SDS011;9426;54.118;17.948;2023-02-18T11:26:20;14.97;;;2.77;;
18592;SDS011;9426;54.118;17.948;2023-02-18T11:31:49;17.50;;;3.17;;
18592;SDS011;9426;54.118;17.948;2023-02-18T11:37:18;17.60;;;3.40;;
18592;SDS011;9426;54.118;17.948;2023-02-18T11:42:43;16.40;;;3.57;;
18592;SDS011;9426;54.118;17.948;2023-02-18T11:48:11;18.20;;;2.93;;
18592;SDS011;9426;54.118;17.948;2023-02-18T11:53:49;20.10;;;3.23;;
18592;SDS011;9426;54.118;17.948;2023-02-18T11:59:22;17.80;;;3.20;;
18592;SDS011;9426;54.118;17.948;2023-02-18T12:04:47;25.30;;;3.33;;
18592;SDS011;9426;54.118;17.948;2023-02-18T12:10:15;15.90;;;2.97;;
18592;SDS011;9426;54.118;17.948;2023-02-18T12:15:48;17.63;;;3.20;;
18592;SDS011;9426;54.118;17.948;2023-02-18T12:21:28;17.43;;;3.57;;
18592;SDS011;9426;54.118;17.948;2023-02-18T12:27:00;19.53;;;3.43;;
18592;SDS011;9426;54.118;17.948;2023-02-18T12:32:39;21.10;;;3.30;;
18592;SDS011;9426;54.118;17.948;2023-02-18T12:38:12;23.67;;;4.10;;
18592;SDS011;9426;54.118;17.948;2023-02-18T12:43:54;21.93;;;3.70;;
18592;SDS011;9426;54.118;17.948;2023-02-18T12:49:38;20.17;;;3.43;;
18592;SDS011;9426;54.118;17.948;2023-02-18T12:55:27;23.73;;;3.33;;
18592;SDS011;9426;54.118;17.948;2023-02-18T13:01:17;24.43;;;3.77;;
18592;SDS011;9426;54.118;17.948;2023-02-18T13:12:48;15.33;;;2.93;;
18592;SDS011;9426;54.118;17.948;2023-02-18T13:18:19;18.07;;;3.47;;
18592;SDS011;9426;54.118;17.948;2023-02-18T13:23:48;25.40;;;2.90;;
18592;SDS011;9426;54.118;17.948;2023-02-18T13:29:17;21.50;;;3.47;;
18592;SDS011;9426;54.118;17.948;2023-02-18T13:34:49;18.53;;;2.90;;
18592;SDS011;9426;54.118;17.948;2023-02-18T13:40:18;31.00;;;3.60;;
18592;SDS011;9426;54.118;17.948;2023-02-18T13:51:28;19.07;;;3.07;;
18592;SDS011;9426;54.118;17.948;2023-02-18T13:56:56;22.80;;;3.83;;
18592;SDS011;9426;54.118;17.948;2023-02-18T14:02:28;23.33;;;4.27;;
18592;SDS011;9426;54.118;17.948;2023-02-18T14:08:05;23.70;;;3.37;;
18592;SDS011;9426;54.118;17.948;2023-02-18T14:13:39;26.33;;;4.13;;
18592;SDS011;9426;54.118;17.948;2023-02-18T14:19:24;19.00;;;3.50;;
18592;SDS011;9426;54.118;17.948;2023-02-18T14:24:55;14.73;;;2.93;;
18592;SDS011;9426;54.118;17.948;2023-02-18T14:30:24;15.70;;;3.10;;
18592;SDS011;9426;54.118;17.948;2023-02-18T14:35:51;21.47;;;3.23;;
18592;SDS011;9426;54.118;17.948;2023-02-18T14:41:26;18.87;;;3.47;;
18592;SDS011;9426;54.118;17.948;2023-02-18T14:47:14;17.13;;;3.00;;
18592;SDS011;9426;54.118;17.948;2023-02-18T14:52:44;19.40;;;3.57;;
18592;SDS011;9426;54.118;17.948;2023-02-18T14:58:16;22.13;;;4.50;;
18592;SDS011;9426;54.118;17.948;2023-02-18T15:03:50;20.50;;;4.13;;
18592;SDS011;9426;54.118;17.948;2023-02-18T15:09:17;28.40;;;5.80;;
18592;SDS011;9426;54.118;17.948;2023-02-18T15:14:43;19.87;;;3.93;;
18592;SDS011;9426;54.118;17.948;2023-02-18T15:20:10;22.53;;;2.80;;
18592;SDS011;9426;54.118;17.948;2023-02-18T15:25:34;22.60;;;3.07;;
18592;SDS011;9426;54.118;17.948;2023-02-18T15:31:00;19.53;;;3.00;;
18592;SDS011;9426;54.118;17.948;2023-02-18T15:36:25;27.77;;;4.37;;
18592;SDS011;9426;54.118;17.948;2023-02-18T15:41:51;12.03;;;2.30;;
18592;SDS011;9426;54.118;17.948;2023-02-18T15:47:18;22.10;;;2.90;;
18592;SDS011;9426;54.118;17.948;2023-02-18T15:52:43;14.13;;;2.40;;
18592;SDS011;9426;54.118;17.948;2023-02-18T15:58:07;22.40;;;2.77;;
18592;SDS011;9426;54.118;17.948;2023-02-18T16:03:43;15.83;;;2.43;;
18592;SDS011;9426;54.118;17.948;2023-02-18T16:09:11;16.97;;;2.30;;
18592;SDS011;9426;54.118;17.948;2023-02-18T16:14:39;11.23;;;1.90;;
18592;SDS011;9426;54.118;17.948;2023-02-18T16:20:15;10.93;;;2.30;;
18592;SDS011;9426;54.118;17.948;2023-02-18T16:25:47;5.03;;;1.50;;
18592;SDS011;9426;54.118;17.948;2023-02-18T16:31:11;9.97;;;1.70;;
18592;SDS011;9426;54.118;17.948;2023-02-18T16:36:38;10.30;;;2.03;;
18592;SDS011;9426;54.118;17.948;2023-02-18T16:42:23;9.83;;;2.17;;
18592;SDS011;9426;54.118;17.948;2023-02-18T16:47:49;9.37;;;2.07;;
18592;SDS011;9426;54.118;17.948;2023-02-18T16:53:14;18.47;;;3.67;;
18592;SDS011;9426;54.118;17.948;2023-02-18T16:58:38;21.10;;;2.80;;
18592;SDS011;9426;54.118;17.948;2023-02-18T17:04:03;12.70;;;2.40;;
18592;SDS011;9426;54.118;17.948;2023-02-18T17:09:29;15.00;;;2.57;;
18592;SDS011;9426;54.118;17.948;2023-02-18T17:14:53;12.47;;;2.43;;
18592;SDS011;9426;54.118;17.948;2023-02-18T17:20:18;22.57;;;2.77;;
18592;SDS011;9426;54.118;17.948;2023-02-18T17:25:44;14.53;;;2.53;;
18592;SDS011;9426;54.118;17.948;2023-02-18T17:31:11;14.77;;;3.20;;
18592;SDS011;9426;54.118;17.948;2023-02-18T17:36:37;17.30;;;2.30;;
18592;SDS011;9426;54.118;17.948;2023-02-18T17:42:08;19.87;;;2.93;;
18592;SDS011;9426;54.118;17.948;2023-02-18T17:47:35;14.40;;;2.43;;
18592;SDS011;9426;54.118;17.948;2023-02-18T17:52:59;20.63;;;3.37;;
18592;SDS011;9426;54.118;17.948;2023-02-18T17:58:25;25.07;;;3.53;;
18592;SDS011;9426;54.118;17.948;2023-02-18T18:03:49;22.17;;;3.67;;
18592;SDS011;9426;54.118;17.948;2023-02-18T18:09:14;16.40;;;2.60;;
18592;SDS011;9426;54.118;17.948;2023-02-18T18:14:39;16.37;;;2.70;;
18592;SDS011;9426;54.118;17.948;2023-02-18T18:20:04;14.33;;;2.80;;
18592;SDS011;9426;54.118;17.948;2023-02-18T18:25:31;16.70;;;2.97;;
18592;SDS011;9426;54.118;17.948;2023-02-18T18:30:59;14.33;;;2.70;;
18592;SDS011;9426;54.118;17.948;2023-02-18T18:36:24;15.60;;;2.90;;
18592;SDS011;9426;54.118;17.948;2023-02-18T18:41:48;18.60;;;2.70;;
18592;SDS011;9426;54.118;17.948;2023-02-18T18:47:14;13.70;;;2.50;;
18592;SDS011;9426;54.118;17.948;2023-02-18T18:52:38;16.97;;;3.00;;
18592;SDS011;9426;54.118;17.948;2023-02-18T18:58:04;13.37;;;2.70;;
18592;SDS011;9426;54.118;17.948;2023-02-18T19:03:29;19.77;;;3.00;;
18592;SDS011;9426;54.118;17.948;2023-02-18T19:08:56;18.07;;;2.97;;
18592;SDS011;9426;54.118;17.948;2023-02-18T19:14:20;15.87;;;3.03;;
18592;SDS011;9426;54.118;17.948;2023-02-18T19:19:46;22.07;;;3.43;;
18592;SDS011;9426;54.118;17.948;2023-02-18T19:25:12;17.70;;;2.60;;
18592;SDS011;9426;54.118;17.948;2023-02-18T19:30:37;19.60;;;3.10;;
18592;SDS011;9426;54.118;17.948;2023-02-18T19:36:05;19.30;;;3.20;;
18592;SDS011;9426;54.118;17.948;2023-02-18T19:41:30;14.13;;;2.20;;
18592;SDS011;9426;54.118;17.948;2023-02-18T19:46:54;18.07;;;3.40;;
18592;SDS011;9426;54.118;17.948;2023-02-18T19:52:20;17.93;;;2.30;;
18592;SDS011;9426;54.118;17.948;2023-02-18T19:57:45;18.53;;;2.87;;
18592;SDS011;9426;54.118;17.948;2023-02-18T20:03:08;16.33;;;2.83;;
18592;SDS011;9426;54.118;17.948;2023-02-18T20:08:33;19.97;;;4.37;;
18592;SDS011;9426;54.118;17.948;2023-02-18T20:13:58;12.87;;;2.57;;
18592;SDS011;9426;54.118;17.948;2023-02-18T20:19:22;14.50;;;2.90;;
18592;SDS011;9426;54.118;17.948;2023-02-18T20:24:47;17.97;;;2.80;;
18592;SDS011;9426;54.118;17.948;2023-02-18T20:30:11;16.80;;;3.00;;
18592;SDS011;9426;54.118;17.948;2023-02-18T20:35:35;10.23;;;2.37;;
18592;SDS011;9426;54.118;17.948;2023-02-18T20:41:03;23.67;;;3.17;;
18592;SDS011;9426;54.118;17.948;2023-02-18T20:46:27;20.73;;;2.83;;
18592;SDS011;9426;54.118;17.948;2023-02-18T20:51:51;12.17;;;3.13;;
18592;SDS011;9426;54.118;17.948;2023-02-18T20:57:16;12.43;;;2.23;;
18592;SDS011;9426;54.118;17.948;2023-02-18T21:02:40;13.20;;;2.30;;
18592;SDS011;9426;54.118;17.948;2023-02-18T21:08:04;19.90;;;2.77;;
18592;SDS011;9426;54.118;17.948;2023-02-18T21:13:30;17.60;;;3.37;;
18592;SDS011;9426;54.118;17.948;2023-02-18T21:18:54;16.00;;;4.00;;
18592;SDS011;9426;54.118;17.948;2023-02-18T21:24:18;12.60;;;2.50;;
18592;SDS011;9426;54.118;17.948;2023-02-18T21:53:03;19.30;;;2.60;;
18592;SDS011;9426;54.118;17.948;2023-02-18T21:58:27;13.67;;;2.00;;
18592;SDS011;9426;54.118;17.948;2023-02-18T22:03:52;11.67;;;2.23;;
18592;SDS011;9426;54.118;17.948;2023-02-18T22:09:18;11.63;;;2.47;;
18592;SDS011;9426;54.118;17.948;2023-02-18T22:14:41;18.50;;;2.13;;
18592;SDS011;9426;54.118;17.948;2023-02-18T22:20:06;21.63;;;3.07;;
18592;SDS011;9426;54.118;17.948;2023-02-18T22:25:32;15.37;;;3.23;;
18592;SDS011;9426;54.118;17.948;2023-02-18T22:30:57;15.03;;;2.23;;
18592;SDS011;9426;54.118;17.948;2023-02-18T22:36:22;8.47;;;2.20;;
18592;SDS011;9426;54.118;17.948;2023-02-18T22:41:49;13.37;;;2.40;;
18592;SDS011;9426;54.118;17.948;2023-02-18T22:47:13;15.87;;;2.43;;
18592;SDS011;9426;54.118;17.948;2023-02-18T22:52:36;17.13;;;2.40;;
18592;SDS011;9426;54.118;17.948;2023-02-18T22:58:02;12.70;;;2.20;;
18592;SDS011;9426;54.118;17.948;2023-02-18T23:03:26;15.90;;;3.20;;
18592;SDS011;9426;54.118;17.948;2023-02-18T23:08:52;9.37;;;2.20;;
18592;SDS011;9426;54.118;17.948;2023-02-18T23:14:18;11.47;;;2.50;;
18592;SDS011;9426;54.118;17.948;2023-02-18T23:19:44;8.20;;;2.07;;
18592;SDS011;9426;54.118;17.948;2023-02-18T23:25:09;18.70;;;3.53;;
18592;SDS011;9426;54.118;17.948;2023-02-18T23:30:34;20.00;;;2.57;;
18592;SDS011;9426;54.118;17.948;2023-02-18T23:36:06;17.57;;;2.57;;
18592;SDS011;9426;54.118;17.948;2023-02-18T23:41:31;11.70;;;2.13;;
18592;SDS011;9426;54.118;17.948;2023-02-18T23:46:56;16.97;;;2.40;;
18592;SDS011;9426;54.118;17.948;2023-02-18T23:52:20;21.10;;;3.23;;
18592;SDS011;9426;54.118;17.948;2023-02-18T23:57:44;14.57;;;2.73;;
